Time;durP1;ratioP1;P1;durP2;ratioP2;P2;SDS_P1;SDS_P2;PMS_P1;PMS_P2;Temp;Humidity;BMP_temperature;BMP_pressure;BME280_temperature;BME280_humidity;BME280_pressure;Samples;Min_cycle;Max_cycle;Signal;HPM_P1;HPM_P2
2022/06/21 00:01:02;;;;;;;9.13;2.67;;;;;;;19.54;50.95;101795.72;4972803;28;20059;-71
2022/06/21 00:03:28;;;;;;;8.95;2.42;;;;;;;19.44;51.50;101808.47;4971069;28;20073;-70
2022/06/21 00:05:54;;;;;;;10.13;2.75;;;;;;;19.45;51.13;101799.22;4976568;28;20045;-69
2022/06/21 00:08:29;;;;;;;12.07;2.58;;;;;;;19.50;50.73;101791.88;4971494;28;20035;-71
2022/06/21 00:10:56;;;;;;;4.43;2.03;;;;;;;19.43;50.61;101791.28;4970597;28;20402;-71
2022/06/21 00:13:26;;;;;;;8.77;3.17;;;;;;;19.28;51.08;101793.88;4970070;28;20041;-69
2022/06/21 00:15:56;;;;;;;8.43;2.72;;;;;;;19.33;50.76;101793.09;4969617;28;20499;-71
2022/06/21 00:18:24;;;;;;;8.80;2.95;;;;;;;19.26;51.36;101793.31;4969874;28;20031;-70
2022/06/21 00:20:49;;;;;;;4.95;2.53;;;;;;;19.28;50.96;101797.41;4972243;28;20081;-71
2022/06/21 00:23:25;;;;;;;8.43;2.33;;;;;;;19.24;51.74;101798.19;4974824;28;20526;-71
2022/06/21 00:25:51;;;;;;;5.07;2.25;;;;;;;18.96;51.41;101790.28;4973570;28;20034;-70
2022/06/21 00:28:18;;;;;;;8.20;2.83;;;;;;;19.05;51.43;101786.00;4968434;28;20053;-71
2022/06/21 00:30:46;;;;;;;8.10;3.13;;;;;;;19.03;52.56;101796.34;4972601;28;20035;-71
2022/06/21 00:33:14;;;;;;;7.97;2.63;;;;;;;18.64;53.16;101797.56;4973004;28;20479;-71
2022/06/21 00:35:46;;;;;;;8.75;2.88;;;;;;;18.91;51.91;101795.66;5003852;28;20035;-70
2022/06/21 00:38:14;;;;;;;6.63;2.85;;;;;;;18.88;51.90;101794.31;4972698;28;20038;-70
2022/06/21 00:40:39;;;;;;;8.75;3.20;;;;;;;18.90;52.42;101803.03;4977457;28;20049;-71
2022/06/21 00:43:11;;;;;;;11.55;3.40;;;;;;;18.62;53.51;101803.28;4972474;28;20035;-70
2022/06/21 00:45:39;;;;;;;7.53;3.40;;;;;;;18.84;52.58;101792.34;4972496;28;20509;-71
2022/06/21 00:48:16;;;;;;;6.10;2.65;;;;;;;18.74;52.45;101786.78;4972450;28;20034;-71
2022/06/21 00:50:48;;;;;;;11.23;4.47;;;;;;;18.79;51.79;101789.59;4973381;28;20126;-71
2022/06/21 00:53:13;;;;;;;5.45;2.70;;;;;;;18.82;52.04;101794.50;4975015;28;20443;-70
2022/06/21 00:55:59;;;;;;;8.43;2.95;;;;;;;18.66;52.79;101796.25;4972482;28;20142;-70
2022/06/21 00:58:27;;;;;;;9.00;3.50;;;;;;;18.62;51.82;101792.38;4977107;28;20098;-72
2022/06/21 01:01:04;;;;;;;7.72;3.20;;;;;;;18.62;53.27;101797.81;4972566;28;20045;-70
2022/06/21 01:03:45;;;;;;;6.32;3.25;;;;;;;18.74;52.94;101790.34;4972101;28;20042;-70
2022/06/21 01:06:27;;;;;;;9.82;3.30;;;;;;;18.52;54.37;101788.72;4972969;28;20030;-71
2022/06/21 01:09:07;;;;;;;8.48;3.45;;;;;;;18.48;53.18;101787.56;4972208;28;20051;-71
2022/06/21 01:11:37;;;;;;;6.95;3.15;;;;;;;18.53;53.07;101785.75;4972023;28;20158;-71
2022/06/21 01:14:03;;;;;;;8.18;3.30;;;;;;;18.55;52.96;101778.16;4972029;28;20038;-69
2022/06/21 01:16:31;;;;;;;8.43;3.42;;;;;;;18.42;53.10;101770.31;4972123;28;20064;-71
2022/06/21 01:18:57;;;;;;;5.65;3.42;;;;;;;18.42;52.90;101773.91;4977038;28;20031;-71
2022/06/21 01:21:23;;;;;;;8.82;3.70;;;;;;;18.27;52.96;101762.00;4987372;28;20104;-71
2022/06/21 01:24:10;;;;;;;8.50;3.08;;;;;;;18.35;53.26;101756.94;4971831;28;20627;-72
2022/06/21 01:26:44;;;;;;;7.00;3.55;;;;;;;18.51;52.96;101747.06;4971903;28;20050;-70
2022/06/21 01:29:14;;;;;;;9.15;3.78;;;;;;;18.49;52.91;101741.06;4971295;28;20035;-72
2022/06/21 01:31:40;;;;;;;7.90;3.63;;;;;;;18.55;53.08;101739.22;4971631;28;20050;-70
2022/06/21 01:34:19;;;;;;;8.88;3.90;;;;;;;18.43;52.81;101752.97;4975133;28;20065;-69
2022/06/21 01:36:48;;;;;;;8.77;3.88;;;;;;;18.41;52.81;101752.38;4979314;28;20066;-70
2022/06/21 01:39:26;;;;;;;9.63;4.80;;;;;;;18.46;52.64;101744.28;4975683;28;20038;-70
2022/06/21 01:42:01;;;;;;;9.60;4.05;;;;;;;18.15;53.66;101745.78;4976061;28;20054;-71
2022/06/21 01:44:32;;;;;;;12.93;3.97;;;;;;;18.31;53.18;101747.63;4971248;28;20043;-71
2022/06/21 01:47:02;;;;;;;4.03;3.10;;;;;;;18.49;52.77;101741.06;4971344;28;20106;-69
2022/06/21 01:49:31;;;;;;;4.32;3.47;;;;;;;18.43;52.43;101747.53;4975584;28;20038;-70
2022/06/21 01:52:08;;;;;;;8.70;3.58;;;;;;;18.46;52.48;101754.34;4973602;28;20061;-71
2022/06/21 01:54:38;;;;;;;6.07;3.53;;;;;;;18.54;51.85;101753.88;4971491;28;20031;-71
2022/06/21 01:57:06;;;;;;;5.80;3.00;;;;;;;18.75;51.25;101755.78;4976667;28;20069;-71
2022/06/21 01:59:37;;;;;;;7.10;3.75;;;;;;;18.56;52.26;101758.00;4971158;28;20039;-71
2022/06/21 02:02:07;;;;;;;;;;;;;;;18.30;53.31;101758.75;4971731;28;20031;-70
2022/06/21 02:04:37;;;;;;;8.52;3.20;;;;;;;18.43;52.92;101755.69;4970486;28;19929;-70
2022/06/21 02:07:11;;;;;;;6.05;3.35;;;;;;;18.44;52.65;101753.78;4970380;28;20042;-71
2022/06/21 02:09:44;;;;;;;6.70;3.33;;;;;;;18.49;52.37;101749.22;4970667;28;20070;-72
2022/06/21 02:12:12;;;;;;;10.70;4.75;;;;;;;18.43;51.86;101758.41;4971406;28;20045;-71
2022/06/21 02:14:42;;;;;;;11.85;3.97;;;;;;;18.32;52.56;101757.44;4977540;28;20035;-71
2022/06/21 02:17:19;;;;;;;5.93;3.60;;;;;;;18.24;52.63;101759.75;4972619;28;20415;-72
2022/06/21 02:19:52;;;;;;;3.90;3.08;;;;;;;18.09;54.09;101746.81;4971003;28;20050;-70
2022/06/21 02:22:24;;;;;;;4.05;3.20;;;;;;;18.40;52.38;101747.97;4986756;28;20030;-71
2022/06/21 02:24:51;;;;;;;4.10;3.20;;;;;;;17.55;56.03;101744.97;4977570;28;20529;-71
2022/06/21 02:27:20;;;;;;;4.38;3.55;;;;;;;18.06;53.73;101739.13;4973193;28;20022;-71
2022/06/21 02:29:52;;;;;;;4.35;3.35;;;;;;;18.24;53.17;101743.44;4972665;28;20591;-72
2022/06/21 02:32:32;;;;;;;7.72;3.33;;;;;;;18.26;52.87;101744.84;4973507;28;20555;-72
2022/06/21 02:35:33;;;;;;;4.47;3.20;;;;;;;18.17;53.06;101731.94;4971076;28;20038;-70
2022/06/21 02:38:00;;;;;;;4.35;2.88;;;;;;;18.18;52.33;101734.41;4970406;28;20533;-70
2022/06/21 02:40:35;;;;;;;3.65;2.78;;;;;;;18.19;52.22;101729.78;4970320;28;20043;-71
2022/06/21 02:43:13;;;;;;;4.38;3.00;;;;;;;18.19;52.28;101730.63;4970571;28;20582;-71
2022/06/21 02:45:59;;;;;;;5.43;3.55;;;;;;;18.11;52.49;101728.34;4970903;28;20514;-71
2022/06/21 02:48:30;;;;;;;4.38;2.92;;;;;;;18.12;52.51;101721.00;4971486;28;20098;-70
2022/06/21 02:51:01;;;;;;;6.15;3.20;;;;;;;18.11;52.32;101728.34;4979005;28;20039;-72
2022/06/21 02:53:35;;;;;;;6.80;3.40;;;;;;;18.12;52.50;101721.00;4977175;28;20039;-70
2022/06/21 02:56:08;;;;;;;6.47;2.97;;;;;;;18.09;52.22;101713.31;4970893;28;20439;-71
2022/06/21 02:58:40;;;;;;;5.35;2.90;;;;;;;18.09;51.67;101714.16;4973796;28;20042;-70
2022/06/21 03:01:32;;;;;;;5.65;3.03;;;;;;;18.10;52.03;101723.94;4970230;28;20121;-70
2022/06/21 03:03:59;;;;;;;6.05;2.70;;;;;;;17.99;51.77;101711.31;4972913;28;20035;-70
2022/06/21 03:06:25;;;;;;;4.70;2.92;;;;;;;17.97;51.98;101713.47;4970639;28;20035;-70
2022/06/21 03:09:07;;;;;;;5.80;3.10;;;;;;;17.90;52.29;101723.72;4969775;28;20047;-70
2022/06/21 03:11:40;;;;;;;5.95;2.92;;;;;;;17.86;52.71;101722.56;4984624;28;20077;-69
2022/06/21 03:14:11;;;;;;;6.40;2.65;;;;;;;17.94;52.58;101730.28;4972877;28;20031;-71
2022/06/21 03:16:36;;;;;;;;;;;;;;;17.47;53.36;101734.47;4986584;28;20521;-71
2022/06/21 03:19:05;;;;;;;3.95;2.67;;;;;;;17.35;53.83;101731.03;4977330;28;19922;-71
2022/06/21 03:21:34;;;;;;;3.17;2.80;;;;;;;17.29;54.46;101730.13;4978257;28;20042;-71
2022/06/21 03:24:04;;;;;;;3.55;3.00;;;;;;;17.33;55.15;101734.00;4974719;28;20038;-72
2022/06/21 03:26:29;;;;;;;5.53;3.00;;;;;;;17.18;55.93;101728.31;4974669;28;20047;-71
2022/06/21 03:28:55;;;;;;;6.75;3.85;;;;;;;17.28;55.39;101731.19;4982131;28;20578;-71
2022/06/21 03:31:30;;;;;;;6.10;3.50;;;;;;;17.02;57.36;101734.56;4973752;28;20039;-70
2022/06/21 03:34:03;;;;;;;6.07;3.72;;;;;;;16.86;57.93;101742.69;4979902;28;20531;-71
2022/06/21 03:36:29;;;;;;;6.35;3.03;;;;;;;17.36;55.57;101740.81;4974478;28;20050;-70
2022/06/21 03:39:02;;;;;;;3.88;2.97;;;;;;;17.73;54.49;101731.06;4974482;28;20121;-70
2022/06/21 03:41:43;;;;;;;6.05;3.58;;;;;;;17.93;54.07;101727.81;4973849;28;20130;-71
2022/06/21 03:44:20;;;;;;;5.93;3.53;;;;;;;17.74;54.39;101731.91;4973939;28;20046;-71
2022/06/21 03:47:05;;;;;;;4.30;3.65;;;;;;;17.58;55.27;101738.19;4974158;28;20051;-71
2022/06/21 03:49:36;;;;;;;6.10;3.70;;;;;;;17.49;54.93;101738.59;4973930;28;20039;-70
2022/06/21 03:52:12;;;;;;;4.00;3.60;;;;;;;17.82;54.06;101734.19;4973729;28;20054;-71
2022/06/21 03:54:48;;;;;;;5.15;3.60;;;;;;;17.79;53.98;101740.94;4974097;28;20109;-70
2022/06/21 03:57:17;;;;;;;6.43;4.53;;;;;;;17.87;53.70;101743.25;4979744;28;20526;-70
2022/06/21 03:59:54;;;;;;;4.90;3.75;;;;;;;17.80;54.23;101748.03;4973865;28;20515;-71
2022/06/21 04:02:26;;;;;;;7.20;4.43;;;;;;;17.83;54.39;101746.69;4980429;28;20042;-71
2022/06/21 04:05:02;;;;;;;14.52;5.40;;;;;;;17.99;54.28;101743.94;4975678;28;20126;-71
2022/06/21 04:07:45;;;;;;;7.20;4.78;;;;;;;17.89;54.69;101748.41;4973532;28;20051;-71
2022/06/21 04:10:46;;;;;;;7.75;4.82;;;;;;;18.05;54.25;101742.94;4977554;28;20074;-71
2022/06/21 04:13:22;;;;;;;16.05;4.90;;;;;;;18.09;54.33;101738.66;4950757;28;20041;-70
2022/06/21 04:15:55;;;;;;;14.35;6.15;;;;;;;18.31;53.71;101744.09;4945553;28;20051;-71
2022/06/21 04:18:30;;;;;;;11.77;5.25;;;;;;;18.39;53.86;101749.06;4951721;29;20552;-71
2022/06/21 04:21:03;;;;;;;8.18;5.75;;;;;;;18.58;53.63;101753.13;4950777;29;20133;-72
2022/06/21 04:23:37;;;;;;;12.13;5.20;;;;;;;18.32;54.64;101757.44;4950871;29;20050;-70
2022/06/21 04:26:10;;;;;;;8.82;5.25;;;;;;;18.69;53.67;101754.06;4935205;29;20050;-70
2022/06/21 04:28:44;;;;;;;9.30;5.57;;;;;;;18.77;53.26;101754.41;4950208;28;20047;-71
2022/06/21 04:31:14;;;;;;;9.27;5.15;;;;;;;18.57;54.12;101750.66;4950811;29;20082;-71
2022/06/21 04:33:53;;;;;;;9.23;5.15;;;;;;;18.76;52.97;101752.78;4942765;28;20138;-71
2022/06/21 04:36:25;;;;;;;10.63;5.22;;;;;;;18.93;52.72;101749.94;4957916;28;20050;-71
2022/06/21 04:39:01;;;;;;;12.70;5.43;;;;;;;18.71;53.68;101749.19;4950242;29;20047;-69
2022/06/21 04:41:45;;;;;;;12.20;5.80;;;;;;;18.82;53.43;101751.75;4950534;28;20419;-70
2022/06/21 04:44:32;;;;;;;9.18;5.50;;;;;;;18.83;53.77;101755.31;4949960;28;20223;-69
2022/06/21 04:47:20;;;;;;;7.10;5.10;;;;;;;18.98;52.65;101753.56;4950401;28;20031;-71
2022/06/21 04:49:55;;;;;;;10.45;4.68;;;;;;;19.00;52.86;101737.78;4970702;28;20045;-70
2022/06/21 04:52:27;;;;;;;12.45;4.55;;;;;;;19.00;53.01;101734.22;4972870;28;20446;-71
2022/06/21 04:54:53;;;;;;;10.73;4.68;;;;;;;19.06;53.03;101730.47;4972556;28;20049;-70
2022/06/21 04:57:32;;;;;;;8.70;5.78;;;;;;;18.89;53.70;101732.47;4975157;28;20031;-73
2022/06/21 05:00:03;;;;;;;10.35;4.63;;;;;;;19.00;53.49;101731.50;4972612;28;20097;-71
2022/06/21 05:02:41;;;;;;;7.72;4.78;;;;;;;19.15;52.98;101731.59;4957858;28;20293;-73
2022/06/21 05:05:13;;;;;;;9.70;5.47;;;;;;;19.21;52.76;101733.28;4953119;28;20039;-72
2022/06/21 05:07:48;;;;;;;9.52;5.00;;;;;;;19.29;52.68;101728.19;4953216;28;20475;-71
2022/06/21 05:10:19;;;;;;;7.78;4.82;;;;;;;19.23;53.20;101742.03;4952639;28;20095;-72
2022/06/21 05:12:47;;;;;;;7.65;5.00;;;;;;;19.32;52.53;101736.94;4964325;28;20569;-71
2022/06/21 05:15:21;;;;;;;12.02;4.95;;;;;;;19.16;53.53;101742.25;4965157;28;20101;-71
2022/06/21 05:17:54;;;;;;;8.85;4.53;;;;;;;19.36;53.11;101727.19;4966321;28;20487;-71
2022/06/21 05:20:26;;;;;;;8.27;4.75;;;;;;;19.47;53.27;101713.34;4964100;28;20042;-71
2022/06/21 05:22:56;;;;;;;8.57;4.07;;;;;;;19.71;52.23;101714.59;4963604;28;20097;-71
2022/06/21 05:25:24;;;;;;;9.82;4.65;;;;;;;19.57;52.68;101707.97;4967157;28;20046;-71
2022/06/21 05:28:02;;;;;;;7.63;4.53;;;;;;;19.60;52.97;101712.06;4967093;28;20458;-70
2022/06/21 05:30:59;;;;;;;8.60;4.15;;;;;;;19.56;52.97;101711.78;4960619;28;20065;-72
2022/06/21 05:33:34;;;;;;;11.02;4.13;;;;;;;19.61;52.79;101711.00;4993911;28;20038;-74
2022/06/21 05:36:03;;;;;;;17.92;4.07;;;;;;;19.73;52.64;101711.59;4981562;28;20495;-74
2022/06/21 05:38:31;;;;;;;10.93;4.03;;;;;;;19.87;52.42;101713.56;5009615;28;20085;-71
2022/06/21 05:41:31;;;;;;;15.00;4.00;;;;;;;19.94;52.08;101711.44;5017682;28;20532;-73
2022/06/21 05:44:02;;;;;;;8.73;2.90;;;;;;;20.17;51.11;101703.91;4971422;28;20077;-71
2022/06/21 05:46:32;;;;;;;10.88;3.15;;;;;;;20.17;51.38;101713.72;4971590;28;20047;-71
2022/06/21 05:48:59;;;;;;;7.72;3.35;;;;;;;20.18;51.64;101720.00;4971750;28;20121;-72
2022/06/21 05:51:31;;;;;;;7.68;3.15;;;;;;;19.99;52.46;101716.06;4971819;28;20069;-72
2022/06/21 05:54:05;;;;;;;10.10;3.10;;;;;;;20.35;51.24;101722.53;4971551;28;20061;-72
2022/06/21 05:56:34;;;;;;;7.90;3.20;;;;;;;20.33;51.09;101725.53;4983165;28;20034;-72
2022/06/21 05:59:11;;;;;;;6.22;2.60;;;;;;;20.41;50.75;101721.47;4978128;28;20034;-72
2022/06/21 06:02:05;;;;;;;9.63;2.80;;;;;;;20.52;50.69;101721.22;4983856;28;20097;-71
2022/06/21 06:04:44;;;;;;;11.68;3.88;;;;;;;20.56;50.52;101721.53;4985235;28;20046;-72
2022/06/21 06:07:14;;;;;;;9.00;3.13;;;;;;;20.55;50.46;101728.06;4976291;28;20125;-72
2022/06/21 06:09:44;;;;;;;10.93;3.60;;;;;;;20.59;50.24;101727.25;4980377;28;20070;-72
2022/06/21 06:12:22;;;;;;;11.55;2.30;;;;;;;20.66;50.00;101716.88;4983192;28;20057;-72
2022/06/21 06:14:50;;;;;;;8.93;3.13;;;;;;;20.47;50.50;101718.47;4984328;28;20112;-68
2022/06/21 06:17:23;;;;;;;7.05;2.13;;;;;;;20.56;49.85;101721.53;4985370;28;20058;-67
2022/06/21 06:19:58;;;;;;;8.05;1.83;;;;;;;20.64;49.87;101723.69;4977204;28;20395;-68
2022/06/21 06:22:34;;;;;;;9.82;2.30;;;;;;;20.81;49.80;101716.09;4973780;28;20411;-72
2022/06/21 06:25:22;;;;;;;8.85;2.90;;;;;;;21.11;48.66;101715.31;4971166;28;20050;-71
2022/06/21 06:28:04;;;;;;;6.32;2.25;;;;;;;20.86;49.34;101725.09;4982498;28;20054;-72
2022/06/21 06:30:37;;;;;;;9.95;2.90;;;;;;;20.85;49.35;101720.72;4971335;28;20039;-72
2022/06/21 06:33:02;;;;;;;4.50;1.40;;;;;;;20.98;48.48;101720.19;4971781;28;20045;-72
2022/06/21 06:35:28;;;;;;;7.20;1.98;;;;;;;21.26;48.09;101723.50;4971178;28;20118;-73
2022/06/21 06:37:53;;;;;;;5.80;1.98;;;;;;;21.33;47.81;101726.75;4976575;28;20088;-72
2022/06/21 06:40:27;;;;;;;10.00;1.95;;;;;;;21.46;47.59;101727.03;4971251;28;20550;-71
2022/06/21 06:43:02;;;;;;;10.77;2.58;;;;;;;21.46;48.03;101727.03;4970995;28;20118;-67
2022/06/21 06:45:33;;;;;;;4.38;2.00;;;;;;;21.41;48.19;101726.22;4979803;28;20030;-66
2022/06/21 06:48:04;;;;;;;10.02;2.53;;;;;;;21.53;47.80;101724.84;4986482;28;20030;-66
2022/06/21 06:50:48;;;;;;;7.10;2.20;;;;;;;21.21;48.51;101724.31;4982197;28;20114;-74
2022/06/21 06:53:16;;;;;;;4.80;2.03;;;;;;;21.42;48.02;101723.22;4979938;28;20292;-67
2022/06/21 06:55:47;;;;;;;6.68;2.67;;;;;;;21.33;48.39;101721.31;4984150;28;20302;-68
2022/06/21 06:58:52;;;;;;;10.30;2.90;;;;;;;21.79;46.84;101726.44;4987856;28;20030;-68
2022/06/21 07:01:25;;;;;;;14.07;4.43;;;;;;;21.75;47.54;101730.00;4969133;28;20530;-68
2022/06/21 07:04:03;;;;;;;6.60;2.10;;;;;;;22.11;46.72;101734.25;4970906;28;20042;-69
2022/06/21 07:06:52;;;;;;;11.02;2.35;;;;;;;21.37;49.10;101730.59;4965507;28;20051;-70
2022/06/21 07:09:36;;;;;;;7.10;2.15;;;;;;;21.38;48.78;101737.72;4972840;28;20051;-67
2022/06/21 07:12:17;;;;;;;13.55;2.88;;;;;;;21.37;48.37;101736.06;4977101;28;20053;-68
2022/06/21 07:14:44;;;;;;;14.32;4.10;;;;;;;21.91;47.29;101744.47;4973032;28;20066;-68
2022/06/21 07:17:35;;;;;;;5.32;2.40;;;;;;;21.84;47.15;101734.66;4979746;28;20096;-68
2022/06/21 07:20:03;;;;;;;15.70;2.75;;;;;;;22.01;46.52;101739.81;4910810;29;20044;-69
2022/06/21 07:22:34;;;;;;;14.60;2.17;;;;;;;21.91;46.08;101737.09;4891166;29;20091;-69
2022/06/21 07:25:41;;;;;;;5.00;2.97;;;;;;;22.09;45.74;101741.97;4911786;29;20623;-66
2022/06/21 07:28:38;;;;;;;5.82;1.75;;;;;;;22.60;44.50;101746.09;4913815;29;20469;-67
2022/06/21 07:31:10;;;;;;;10.05;1.85;;;;;;;22.62;44.44;101748.59;4912911;29;20063;-67
2022/06/21 07:33:45;;;;;;;4.72;1.70;;;;;;;22.34;44.70;101747.31;4913162;29;20038;-67
2022/06/21 07:36:26;;;;;;;11.43;3.08;;;;;;;22.25;44.32;101745.47;4944470;28;20023;-70
2022/06/21 07:39:04;;;;;;;7.28;1.80;;;;;;;22.26;44.87;101758.88;4951502;28;20129;-69
2022/06/21 07:41:40;;;;;;;6.75;1.75;;;;;;;22.46;44.43;101756.03;4950047;28;20053;-68
2022/06/21 07:44:41;;;;;;;8.10;2.63;;;;;;;22.56;43.77;101755.94;4943630;28;20242;-67
2022/06/21 07:47:09;;;;;;;;;;;;;;;22.64;43.67;101747.16;4890064;29;20044;-68
2022/06/21 07:49:44;;;;;;;8.88;1.48;;;;;;;22.63;43.12;101748.28;4894928;29;19919;-68
2022/06/21 07:52:21;;;;;;;4.70;1.60;;;;;;;23.01;42.59;101752.16;4873666;29;20044;-68
2022/06/21 07:55:23;;;;;;;5.90;1.75;;;;;;;23.19;42.61;101747.91;4900539;29;20048;-70
2022/06/21 07:57:56;;;;;;;7.07;2.50;;;;;;;23.23;41.85;101751.69;4905999;29;20043;-69
2022/06/21 08:00:25;;;;;;;11.10;1.98;;;;;;;23.00;43.78;101757.91;4931697;29;20151;-67
2022/06/21 08:08:55;;;;;;;4.82;1.90;;;;;;;23.32;42.60;101753.56;4930574;29;20054;-68
2022/06/21 08:11:33;;;;;;;6.18;1.65;;;;;;;23.48;42.42;101746.00;4931757;29;20048;-68
2022/06/21 08:13:58;;;;;;;4.85;1.40;;;;;;;23.43;41.95;101746.03;4928951;29;20043;-68
2022/06/21 08:16:33;;;;;;;6.18;1.92;;;;;;;23.30;42.12;101736.53;4928921;29;20039;-69
2022/06/21 08:19:15;;;;;;;6.82;1.75;;;;;;;23.94;39.99;101740.88;4930710;29;20572;-68
2022/06/21 08:22:05;;;;;;;4.30;1.20;;;;;;;24.17;39.78;101740.88;4928349;29;20052;-69
2022/06/21 08:24:57;;;;;;;5.25;1.65;;;;;;;23.91;39.64;101723.03;4944403;28;20093;-68
2022/06/21 08:27:27;;;;;;;6.75;1.35;;;;;;;24.09;38.62;101736.03;4936628;28;20049;-63
2022/06/21 08:29:56;;;;;;;7.35;2.05;;;;;;;23.72;39.15;101732.31;4947876;28;20039;-62
2022/06/21 08:32:32;;;;;;;4.65;1.30;;;;;;;24.04;39.10;101727.03;4947663;28;20169;-63
2022/06/21 08:35:08;;;;;;;3.83;0.85;;;;;;;23.99;38.41;101722.41;4963323;28;20042;-64
2022/06/21 08:37:45;;;;;;;4.57;1.00;;;;;;;24.27;37.73;101723.44;4986378;28;20109;-62
2022/06/21 08:40:19;;;;;;;3.55;1.20;;;;;;;24.12;38.20;101721.72;4981434;28;20039;-62
2022/06/21 08:43:12;;;;;;;4.18;1.65;;;;;;;23.50;38.78;101719.09;4984427;28;20561;-63
2022/06/21 08:46:02;;;;;;;2.60;1.30;;;;;;;23.69;38.24;101722.72;4985247;28;20035;-63
2022/06/21 08:48:34;;;;;;;6.32;2.63;;;;;;;22.78;40.47;101725.44;4987393;28;20105;-63
2022/06/21 08:51:14;;;;;;;4.68;1.85;;;;;;;23.54;38.77;101726.47;4981367;28;20498;-62
2022/06/21 08:53:45;;;;;;;3.42;1.52;;;;;;;23.09;39.70;101726.88;4987925;28;20038;-62
2022/06/21 08:56:18;;;;;;;6.20;1.30;;;;;;;23.90;38.52;101713.16;4979119;28;20077;-62
2022/06/21 08:58:56;;;;;;;3.33;1.13;;;;;;;24.21;37.79;101708.97;4977901;28;21221;-62
2022/06/21 09:01:57;;;;;;;7.10;1.67;;;;;;;24.15;37.99;101707.41;4977700;28;20083;-62
2022/06/21 09:04:43;;;;;;;3.60;1.15;;;;;;;24.03;37.26;101707.00;4975037;28;20035;-63
2022/06/21 09:07:31;;;;;;;5.80;2.83;;;;;;;24.50;36.44;101708.00;4981914;28;20403;-63
2022/06/21 09:09:56;;;;;;;6.65;1.77;;;;;;;23.68;38.08;101707.38;4983056;28;20097;-63
2022/06/21 09:12:30;;;;;;;3.30;1.23;;;;;;;24.68;36.76;101709.94;4983285;28;20149;-63
2022/06/21 09:15:02;;;;;;;4.25;1.33;;;;;;;25.14;34.95;101705.34;4976590;28;20035;-63
2022/06/21 09:17:42;;;;;;;4.25;1.02;;;;;;;25.17;33.25;101702.03;4984528;28;20046;-63
2022/06/21 09:20:24;;;;;;;5.73;1.13;;;;;;;25.30;34.22;101695.72;4976224;28;20035;-64
2022/06/21 09:23:22;;;;;;;5.65;1.30;;;;;;;24.93;35.42;101699.41;4984296;28;20457;-63
2022/06/21 09:26:22;;;;;;;6.60;1.80;;;;;;;24.16;37.08;101689.78;4929436;29;20048;-63
2022/06/21 09:28:58;;;;;;;4.47;1.40;;;;;;;24.92;35.83;101691.44;4890199;29;20052;-63
2022/06/21 09:31:36;;;;;;;4.20;1.50;;;;;;;24.99;36.07;101697.38;4890344;29;20048;-64
2022/06/21 09:34:08;;;;;;;4.20;1.38;;;;;;;25.17;35.55;101688.25;4890337;29;20041;-64
2022/06/21 09:37:11;;;;;;;9.30;1.45;;;;;;;24.93;36.98;101682.91;4886828;29;20048;-64
2022/06/21 09:39:49;;;;;;;5.65;1.20;;;;;;;25.36;36.92;101679.94;4890759;29;20056;-64
2022/06/21 09:42:38;;;;;;;7.88;1.23;;;;;;;25.91;34.88;101681.63;4888721;29;20051;-63
2022/06/21 09:45:22;;;;;;;2.90;0.98;;;;;;;25.74;34.18;101671.25;4889326;29;20564;-65
2022/06/21 09:47:59;;;;;;;5.78;1.30;;;;;;;25.49;33.63;101669.00;4891297;29;20136;-64
2022/06/21 09:50:57;;;;;;;3.60;1.20;;;;;;;24.46;34.75;101668.50;4889361;29;20037;-66
2022/06/21 09:53:25;;;;;;;5.47;1.50;;;;;;;24.71;33.94;101655.19;4872730;29;20449;-64
2022/06/21 09:56:05;;;;;;;5.15;1.40;;;;;;;25.12;32.50;101656.16;4891389;29;20405;-64
2022/06/21 09:58:43;;;;;;;3.70;0.95;;;;;;;25.66;32.02;101655.44;4890471;29;20451;-64
2022/06/21 10:01:35;;;;;;;4.43;0.90;;;;;;;26.32;32.31;101654.84;4889833;29;20119;-63
2022/06/21 10:04:19;;;;;;;3.22;1.05;;;;;;;26.52;30.89;101662.66;4944153;28;20109;-63
2022/06/21 10:07:03;;;;;;;4.70;0.98;;;;;;;26.78;31.79;101649.91;4982247;28;20030;-63
2022/06/21 10:09:45;;;;;;;4.78;1.15;;;;;;;26.57;31.05;101651.53;4974166;28;20042;-63
2022/06/21 10:12:23;;;;;;;10.45;1.08;;;;;;;25.82;31.47;101653.19;4978550;28;20027;-65
2022/06/21 10:15:10;;;;;;;1.80;0.60;;;;;;;25.88;31.75;101651.94;4981322;28;20046;-64
2022/06/21 10:17:54;;;;;;;2.83;0.63;;;;;;;26.38;30.44;101648.09;4983906;28;20038;-64
2022/06/21 10:20:59;;;;;;;6.07;0.88;;;;;;;25.97;32.70;101647.34;4979172;28;20042;-64
2022/06/21 10:23:43;;;;;;;5.10;0.85;;;;;;;26.97;30.06;101641.41;4955555;28;20047;-63
2022/06/21 10:26:23;;;;;;;3.03;1.23;;;;;;;25.98;30.54;101640.72;4959725;28;20043;-64
2022/06/21 10:29:06;;;;;;;2.90;1.13;;;;;;;25.23;31.50;101643.84;4965343;28;20193;-64
2022/06/21 10:31:40;;;;;;;3.13;0.75;;;;;;;26.36;28.43;101635.75;4955327;28;20111;-63
2022/06/21 10:34:51;;;;;;;1.65;0.88;;;;;;;26.95;29.52;101638.97;4960107;28;20042;-63
2022/06/21 10:37:38;;;;;;;5.38;0.90;;;;;;;27.65;28.33;101632.69;4957626;28;20499;-64
2022/06/21 10:40:25;;;;;;;2.55;0.85;;;;;;;27.87;29.17;101627.06;4955567;28;20089;-64
2022/06/21 10:42:51;;;;;;;2.88;0.90;;;;;;;27.81;28.31;101615.34;4965127;28;20622;-63
2022/06/21 10:45:22;;;;;;;5.45;1.10;;;;;;;28.13;27.09;101610.53;4964794;28;20109;-62
2022/06/21 10:48:02;;;;;;;2.42;0.70;;;;;;;27.78;24.76;101609.66;4957826;28;20629;-64
2022/06/21 10:50:36;;;;;;;4.47;1.08;;;;;;;27.05;25.38;101613.06;4964534;28;20039;-64
2022/06/21 10:53:25;;;;;;;1.17;0.60;;;;;;;28.31;26.86;101601.94;4964597;28;20073;-64
2022/06/21 10:59:08;;;;;;;2.83;0.80;;;;;;;27.96;28.04;101588.41;4892296;29;20104;-64
2022/06/21 11:01:56;;;;;;;4.40;0.82;;;;;;;28.28;25.40;101587.94;4908076;29;20044;-64
2022/06/21 11:04:33;;;;;;;1.42;0.35;;;;;;;28.80;26.21;101591.47;4907247;29;20099;-63
2022/06/21 11:07:03;;;;;;;4.35;1.20;;;;;;;27.83;26.49;101590.97;4904983;29;20508;-63
2022/06/21 11:09:46;;;;;;;;;;;;;;;28.89;27.18;101590.34;4909412;29;20131;-72
2022/06/21 11:15:42;;;;;;;2.83;0.68;;;;;;;29.33;25.47;101595.41;4907746;29;20453;-70
2022/06/21 11:18:40;;;;;;;4.07;1.40;;;;;;;28.96;25.21;101598.13;4909491;29;20044;-70
2022/06/21 11:21:20;;;;;;;3.95;0.50;;;;;;;28.86;25.81;101593.75;4891219;29;20448;-70
2022/06/21 11:24:00;;;;;;;2.05;0.70;;;;;;;28.44;26.09;101597.38;4908774;29;20072;-72
2022/06/21 11:26:46;;;;;;;3.03;0.70;;;;;;;27.94;26.14;101579.59;4908740;28;20583;-72
2022/06/21 11:29:40;;;;;;;4.30;0.75;;;;;;;28.89;26.24;101568.19;4909666;29;20043;-73
2022/06/21 11:32:33;;;;;;;4.13;0.95;;;;;;;29.49;25.51;101571.53;4907930;29;20088;-70
2022/06/21 11:35:04;;;;;;;2.72;0.60;;;;;;;29.78;25.52;101573.50;4925022;28;20030;-72
2022/06/21 11:37:35;;;;;;;4.47;0.60;;;;;;;30.06;25.12;101571.00;4983459;28;20566;-72
2022/06/21 11:40:25;;;;;;;4.45;0.68;;;;;;;29.50;25.27;101573.16;4986891;28;20089;-71
2022/06/21 11:42:55;;;;;;;2.30;0.52;;;;;;;29.59;24.82;101561.22;4987454;28;20066;-69
2022/06/21 11:45:34;;;;;;;3.05;0.70;;;;;;;29.08;25.27;101563.06;4981980;28;20390;-69
2022/06/21 11:48:07;;;;;;;4.27;1.30;;;;;;;28.88;26.08;101565.75;4979357;28;20057;-71
2022/06/21 11:50:32;;;;;;;3.80;0.70;;;;;;;29.16;25.18;101564.22;4988391;28;20061;-72
2022/06/21 11:53:15;;;;;;;3.15;0.93;;;;;;;29.15;26.24;101560.63;4983232;28;20141;-69
2022/06/21 11:55:47;;;;;;;4.57;0.80;;;;;;;30.05;25.56;101567.41;4984527;28;20034;-69
2022/06/21 11:58:31;;;;;;;2.83;0.50;;;;;;;30.47;24.52;101568.22;4983296;28;20173;-71
2022/06/21 12:01:20;;;;;;;3.60;0.80;;;;;;;30.56;25.30;101576.47;4981779;28;20041;-72
2022/06/21 12:03:52;;;;;;;1.85;0.70;;;;;;;30.86;24.60;101576.00;4978138;28;20030;-71
2022/06/21 12:06:29;;;;;;;3.78;0.90;;;;;;;30.00;25.65;101573.19;4984414;28;20256;-71
2022/06/21 12:09:23;;;;;;;4.53;0.90;;;;;;;30.29;25.76;101581.44;4977556;28;20105;-70
2022/06/21 12:12:05;;;;;;;2.42;0.68;;;;;;;29.55;24.87;101566.63;4947593;28;20066;-69
2022/06/21 12:15:02;;;;;;;2.42;0.82;;;;;;;29.86;24.94;101566.28;4930860;28;20053;-71
2022/06/21 12:17:45;;;;;;;3.95;0.77;;;;;;;30.92;24.87;101566.31;4948665;28;20047;-71
2022/06/21 12:20:21;;;;;;;1.23;0.57;;;;;;;31.53;24.88;101571.94;4950076;28;20384;-70